Time;durP1;ratioP1;P1;durP2;ratioP2;P2;SDS_P1;SDS_P2;PMS_P1;PMS_P2;Temp;Humidity;BMP_temperature;BMP_pressure;BME280_temperature;BME280_humidity;BME280_pressure;Samples;Min_cycle;Max_cycle;Signal;HPM_P1;HPM_P2
2023/12/31 00:01:24;;;;;;;3.60;1.00;;;;;;;10.79;69.44;100391.47;5014344;28;20054;-71
2023/12/31 00:03:52;;;;;;;2.90;0.80;;;;;;;10.77;69.58;100383.66;5027177;28;20075;-71
2023/12/31 00:06:20;;;;;;;1.65;0.82;;;;;;;10.76;69.58;100360.50;5023114;28;20062;-72
2023/12/31 00:08:48;;;;;;;1.15;0.75;;;;;;;10.74;69.44;100349.16;5026201;28;20050;-71
2023/12/31 00:11:15;;;;;;;2.00;1.02;;;;;;;10.73;69.34;100356.41;5023086;28;20046;-71
2023/12/31 00:13:43;;;;;;;1.58;1.10;;;;;;;10.74;69.61;100344.63;5037116;28;20053;-72
2023/12/31 00:16:12;;;;;;;2.95;0.90;;;;;;;10.74;69.27;100346.50;5026212;28;20053;-72
2023/12/31 00:18:41;;;;;;;1.23;0.88;;;;;;;10.73;69.32;100332.22;5008795;28;20049;-72
2023/12/31 00:21:09;;;;;;;1.63;0.93;;;;;;;10.73;69.29;100331.41;5029259;28;20043;-71
2023/12/31 00:23:37;;;;;;;1.27;0.70;;;;;;;10.73;69.23;100316.09;5026864;28;20042;-72
2023/12/31 00:26:04;;;;;;;1.25;1.13;;;;;;;10.74;69.13;100306.16;5017777;28;20050;-72
2023/12/31 00:28:32;;;;;;;1.58;0.90;;;;;;;10.72;69.35;100303.72;5028807;28;20363;-71
2023/12/31 00:31:00;;;;;;;1.38;0.82;;;;;;;10.72;69.29;100297.53;5033889;28;20218;-71
2023/12/31 00:33:28;;;;;;;1.35;0.95;;;;;;;10.72;69.21;100300.22;5031659;28;20054;-71
2023/12/31 00:35:57;;;;;;;1.92;0.90;;;;;;;10.71;69.13;100298.56;5029219;28;20559;-72
2023/12/31 00:38:25;;;;;;;1.92;0.90;;;;;;;10.71;68.93;100293.19;5027811;28;20041;-72
2023/12/31 00:40:53;;;;;;;1.48;0.80;;;;;;;10.71;68.89;100277.06;5029673;28;20070;-72
2023/12/31 00:43:21;;;;;;;1.77;1.42;;;;;;;10.69;68.68;100280.00;5020810;28;20050;-72
2023/12/31 00:45:49;;;;;;;2.30;0.95;;;;;;;10.70;68.89;100278.13;5025094;28;20049;-72
2023/12/31 00:48:17;;;;;;;1.60;0.88;;;;;;;10.68;68.89;100270.31;5039239;28;20463;-72
2023/12/31 00:50:45;;;;;;;1.60;0.95;;;;;;;10.63;69.08;100254.06;5019618;28;20074;-72
2023/12/31 00:53:14;;;;;;;2.50;0.70;;;;;;;10.67;68.91;100257.09;5022530;28;20050;-72
2023/12/31 00:55:43;;;;;;;2.83;1.08;;;;;;;10.66;68.83;100261.66;5028274;28;20060;-72
2023/12/31 00:58:11;;;;;;;2.45;0.80;;;;;;;10.66;68.82;100256.28;5005845;28;20526;-72
2023/12/31 01:00:39;;;;;;;2.65;0.90;;;;;;;10.66;68.77;100266.22;5014604;28;20065;-72
2023/12/31 01:03:07;;;;;;;1.92;0.90;;;;;;;10.66;68.83;100263.53;5028402;28;20048;-70
2023/12/31 01:05:35;;;;;;;4.13;1.10;;;;;;;10.65;68.64;100256.53;5017965;28;20051;-71
2023/12/31 01:08:05;;;;;;;1.80;0.90;;;;;;;10.65;68.77;100256.53;5027481;28;20046;-71
2023/12/31 01:10:34;;;;;;;1.88;1.20;;;;;;;10.65;68.70;100251.16;5031309;28;20083;-71
2023/12/31 01:13:02;;;;;;;2.65;0.90;;;;;;;10.65;68.98;100232.34;5023547;28;20046;-72
2023/12/31 01:15:30;;;;;;;2.65;0.98;;;;;;;10.62;68.73;100233.63;5014599;28;20042;-70
2023/12/31 01:17:58;;;;;;;2.47;1.10;;;;;;;10.62;68.89;100227.44;5021791;28;20178;-72
2023/12/31 01:20:26;;;;;;;2.58;1.00;;;;;;;10.59;68.56;100217.97;5024136;28;20046;-72
2023/12/31 01:22:54;;;;;;;1.30;0.80;;;;;;;10.61;68.81;100213.19;5017477;28;20466;-72
2023/12/31 01:25:22;;;;;;;2.15;0.95;;;;;;;10.61;68.77;100213.19;5035771;28;20098;-72
2023/12/31 01:27:53;;;;;;;1.50;0.80;;;;;;;10.59;68.75;100201.03;5025682;28;20049;-71
2023/12/31 01:30:21;;;;;;;1.63;0.77;;;;;;;10.58;68.78;100197.53;5018833;28;20058;-72
2023/12/31 01:32:50;;;;;;;2.92;0.90;;;;;;;10.56;68.61;100202.34;5012523;28;20132;-72
2023/12/31 01:35:18;;;;;;;1.42;0.80;;;;;;;10.58;68.88;100199.41;5033597;28;20053;-72
2023/12/31 01:37:46;;;;;;;3.10;1.05;;;;;;;10.57;68.66;100193.22;5021931;28;20045;-72
2023/12/31 01:40:14;;;;;;;3.92;1.23;;;;;;;10.57;68.72;100179.78;5026133;28;20062;-71
2023/12/31 01:42:42;;;;;;;1.67;0.93;;;;;;;10.55;68.46;100183.75;5018918;28;20472;-72
2023/12/31 01:45:11;;;;;;;1.48;0.95;;;;;;;10.54;68.52;100168.69;5021732;28;20071;-72
2023/12/31 01:47:39;;;;;;;2.78;1.10;;;;;;;10.52;68.46;100163.56;5023947;28;20046;-72
2023/12/31 01:50:08;;;;;;;1.38;0.85;;;;;;;10.46;68.24;100156.44;5020480;28;20049;-71
2023/12/31 01:52:36;;;;;;;1.45;0.80;;;;;;;10.53;68.43;100169.75;5021101;28;20053;-70
2023/12/31 01:55:05;;;;;;;2.17;1.33;;;;;;;10.53;68.46;100156.31;5032345;28;20042;-71
2023/12/31 01:57:37;;;;;;;3.35;0.90;;;;;;;10.53;68.29;100164.38;5022405;28;20050;-72
2023/12/31 02:00:07;;;;;;;4.30;1.15;;;;;;;10.52;68.30;100155.50;5014371;28;20165;-70
2023/12/31 02:02:35;;;;;;;1.83;1.15;;;;;;;10.52;68.29;100147.44;5027113;28;20106;-72
2023/12/31 02:05:05;;;;;;;2.80;1.40;;;;;;;10.51;68.22;100148.50;5022659;28;20042;-72
2023/12/31 02:07:33;;;;;;;1.90;1.00;;;;;;;10.51;68.32;100142.31;5021554;28;20065;-71
2023/12/31 02:10:01;;;;;;;1.83;0.90;;;;;;;10.51;68.31;100142.31;5024226;28;20384;-72
2023/12/31 02:12:29;;;;;;;2.10;1.17;;;;;;;10.50;68.30;100143.38;5033480;28;20464;-72
2023/12/31 02:14:56;;;;;;;3.53;0.98;;;;;;;10.48;68.26;100135.53;5031187;28;20042;-72
2023/12/31 02:17:24;;;;;;;1.45;0.90;;;;;;;10.50;68.34;100132.63;5033395;28;20071;-72
2023/12/31 02:19:53;;;;;;;1.75;1.00;;;;;;;10.49;68.12;100120.25;5021352;28;20046;-72
2023/12/31 02:22:22;;;;;;;1.35;1.08;;;;;;;10.47;68.17;100106.22;5023424;28;20046;-72
2023/12/31 02:24:52;;;;;;;2.22;1.10;;;;;;;10.50;68.19;100103.06;5032327;28;20046;-72
2023/12/31 02:27:21;;;;;;;2.20;1.20;;;;;;;10.48;68.14;100099.81;5023193;28;20049;-72
2023/12/31 02:29:49;;;;;;;2.83;1.48;;;;;;;10.47;67.91;100087.41;5006678;28;20393;-72
2023/12/31 02:32:17;;;;;;;1.30;1.00;;;;;;;10.48;67.94;100089.06;5021161;28;20100;-72
2023/12/31 02:34:45;;;;;;;3.50;1.17;;;;;;;10.47;67.96;100082.06;5023751;28;20094;-72
2023/12/31 02:37:13;;;;;;;2.88;1.10;;;;;;;10.46;68.23;100069.66;5031505;28;20057;-71
2023/12/31 02:39:41;;;;;;;1.98;0.82;;;;;;;10.44;68.11;100051.13;5025785;28;20133;-72
2023/12/31 02:42:09;;;;;;;1.02;0.95;;;;;;;10.47;68.12;100047.94;5019416;28;20054;-68
2023/12/31 02:44:38;;;;;;;1.65;0.90;;;;;;;10.47;68.11;100052.50;5016931;28;20122;-71
2023/12/31 02:47:07;;;;;;;2.88;0.98;;;;;;;10.46;67.79;100046.31;5027712;28;20045;-73
2023/12/31 02:49:35;;;;;;;3.33;1.45;;;;;;;10.45;68.01;100039.31;5017801;28;20046;-72
2023/12/31 02:52:03;;;;;;;2.05;1.17;;;;;;;10.44;68.02;100032.31;5031746;28;20117;-72
2023/12/31 02:54:31;;;;;;;1.63;0.93;;;;;;;10.42;68.08;100029.03;5023206;28;20042;-72
2023/12/31 02:56:59;;;;;;;2.08;1.10;;;;;;;10.42;68.24;100021.00;5027092;28;20041;-72
2023/12/31 02:59:27;;;;;;;3.58;1.27;;;;;;;10.42;68.16;100019.13;5030816;28;20060;-71
2023/12/31 03:01:56;;;;;;;2.95;1.25;;;;;;;10.41;67.91;100014.81;5020401;28;20372;-71
2023/12/31 03:04:24;;;;;;;2.92;1.30;;;;;;;10.43;68.02;100012.69;5020724;28;20042;-72
2023/12/31 03:06:52;;;;;;;1.48;0.90;;;;;;;10.42;68.26;100005.69;5020749;28;20068;-72
2023/12/31 03:09:21;;;;;;;2.08;1.40;;;;;;;10.43;67.98;100003.81;5030378;28;20054;-72
2023/12/31 03:11:50;;;;;;;2.63;1.20;;;;;;;10.43;68.03;99990.38;5024864;28;20402;-72
2023/12/31 03:14:18;;;;;;;1.52;0.98;;;;;;;10.43;67.89;99993.88;5016992;28;20042;-72
2023/12/31 03:16:47;;;;;;;2.70;1.58;;;;;;;10.42;67.75;99970.75;5027187;28;20069;-70
2023/12/31 03:19:17;;;;;;;2.33;1.10;;;;;;;10.42;68.06;99969.94;5013759;28;20459;-72
2023/12/31 03:21:45;;;;;;;1.20;0.90;;;;;;;10.47;67.84;99970.03;5016386;28;20076;-72
2023/12/31 03:24:13;;;;;;;2.03;0.98;;;;;;;10.46;67.94;99956.84;5019017;28;20053;-72
2023/12/31 03:26:41;;;;;;;1.90;1.10;;;;;;;10.44;67.94;99947.16;5016293;28;20053;-72
2023/12/31 03:29:08;;;;;;;1.38;1.00;;;;;;;10.44;67.94;99944.47;5022490;28;20071;-71
2023/12/31 03:31:36;;;;;;;1.35;1.02;;;;;;;10.44;68.02;99940.97;5013441;28;20050;-72
2023/12/31 03:34:06;;;;;;;1.80;1.08;;;;;;;10.44;67.85;99938.28;5021643;28;20191;-73
2023/12/31 03:36:36;;;;;;;1.45;0.98;;;;;;;10.42;67.88;99927.78;5014861;28;20053;-72
2023/12/31 03:39:04;;;;;;;3.88;1.13;;;;;;;10.43;67.94;99913.31;5014271;28;20065;-73
2023/12/31 03:41:31;;;;;;;2.70;1.33;;;;;;;10.43;67.62;99907.13;5028407;28;20050;-72
2023/12/31 03:44:00;;;;;;;2.78;1.20;;;;;;;10.43;68.04;99899.88;5030180;28;20144;-72
2023/12/31 03:46:28;;;;;;;2.05;1.27;;;;;;;10.43;68.01;99899.06;5033711;28;20053;-72
2023/12/31 03:48:56;;;;;;;1.50;1.00;;;;;;;10.42;68.02;99884.00;5030821;28;20398;-71
2023/12/31 03:51:25;;;;;;;4.20;1.48;;;;;;;10.36;67.74;99875.06;5023126;28;20284;-72
2023/12/31 03:53:54;;;;;;;2.80;1.10;;;;;;;10.42;67.76;99875.94;5021223;28;20065;-72
2023/12/31 03:56:22;;;;;;;2.20;1.20;;;;;;;10.41;67.96;99872.44;5014466;28;20046;-71
2023/12/31 03:58:50;;;;;;;2.67;1.25;;;;;;;10.42;67.92;99867.88;5029175;28;20067;-70
2023/12/31 04:01:18;;;;;;;1.35;1.00;;;;;;;10.41;67.99;99856.31;5023402;28;20513;-72
2023/12/31 04:03:46;;;;;;;2.63;1.40;;;;;;;10.40;67.89;99852.00;5023857;28;20041;-72
2023/12/31 04:06:14;;;;;;;1.70;1.10;;;;;;;10.41;67.68;99850.13;5031401;28;20509;-72
2023/12/31 04:08:41;;;;;;;1.83;1.20;;;;;;;10.41;67.96;99845.56;5024949;28;20057;-72
2023/12/31 04:11:10;;;;;;;1.40;1.08;;;;;;;10.41;67.79;99844.75;5026936;28;20042;-73
2023/12/31 04:13:41;;;;;;;2.17;1.08;;;;;;;10.40;67.73;99843.16;5021637;28;20071;-73
2023/12/31 04:16:09;;;;;;;2.20;1.25;;;;;;;10.39;67.83;99828.94;5023795;28;20126;-72
2023/12/31 04:18:37;;;;;;;1.40;1.00;;;;;;;10.35;68.05;99822.41;5016603;28;20054;-72
2023/12/31 04:21:05;;;;;;;1.98;1.10;;;;;;;10.38;67.86;99818.44;5023592;28;20056;-72
2023/12/31 04:23:33;;;;;;;2.33;1.30;;;;;;;10.37;67.85;99806.88;5019092;28;20054;-72
2023/12/31 04:26:01;;;;;;;1.83;1.17;;;;;;;10.35;68.04;99811.66;5022046;28;20042;-72
2023/12/31 04:28:30;;;;;;;1.60;1.02;;;;;;;10.36;67.83;99805.25;5013869;28;20081;-72
2023/12/31 04:31:03;;;;;;;2.17;1.20;;;;;;;10.36;67.99;99791.81;5026120;28;20117;-71
2023/12/31 04:33:31;;;;;;;1.50;1.10;;;;;;;10.35;67.95;99786.69;5012325;28;20061;-72
2023/12/31 04:36:03;;;;;;;2.40;1.17;;;;;;;10.35;67.83;99789.38;5014695;28;20050;-72
2023/12/31 04:38:32;;;;;;;2.72;1.40;;;;;;;10.34;67.94;99799.31;5024323;28;20063;-71
2023/12/31 04:41:00;;;;;;;3.03;1.38;;;;;;;10.32;67.83;99793.38;5018888;28;20042;-71
2023/12/31 04:43:27;;;;;;;1.25;1.15;;;;;;;10.33;67.92;99786.94;5019846;28;20054;-72
2023/12/31 04:45:56;;;;;;;1.90;1.27;;;;;;;10.33;67.96;99775.38;5054377;28;20122;-73
2023/12/31 04:48:24;;;;;;;2.47;1.20;;;;;;;10.32;67.91;99773.75;5021174;28;20095;-73
2023/12/31 04:50:52;;;;;;;1.52;1.05;;;;;;;10.32;67.97;99774.56;5027222;28;20061;-73
2023/12/31 04:53:21;;;;;;;1.13;1.00;;;;;;;10.31;67.93;99764.88;5011034;28;20049;-71
2023/12/31 04:55:49;;;;;;;1.52;1.10;;;;;;;10.30;68.02;99751.69;5029184;28;20044;-71
2023/12/31 04:58:17;;;;;;;1.73;1.20;;;;;;;10.30;67.92;99754.38;5021296;28;20069;-71
2023/12/31 05:00:46;;;;;;;2.42;1.23;;;;;;;10.30;67.87;99751.69;5018952;28;20080;-71
2023/12/31 05:03:15;;;;;;;1.73;1.38;;;;;;;10.31;68.04;99747.97;5018996;28;20057;-71
2023/12/31 05:05:43;;;;;;;2.30;1.02;;;;;;;10.31;68.04;99740.72;5030694;28;20423;-71
2023/12/31 05:08:12;;;;;;;1.70;1.13;;;;;;;10.30;67.88;99733.72;5037788;28;20041;-71
2023/12/31 05:10:40;;;;;;;1.77;1.25;;;;;;;10.30;67.75;99730.22;5030316;28;20049;-72
2023/12/31 05:13:09;;;;;;;3.47;1.40;;;;;;;10.31;67.92;99726.47;5021875;28;20051;-71
2023/12/31 05:15:37;;;;;;;2.50;1.77;;;;;;;10.30;67.82;99727.53;5051348;28;20405;-71
2023/12/31 05:18:06;;;;;;;1.70;1.23;;;;;;;10.30;67.88;99722.16;5063467;28;20075;-72
2023/12/31 05:20:35;;;;;;;1.98;1.27;;;;;;;10.29;67.87;99718.66;5028566;28;20046;-70
2023/12/31 05:23:03;;;;;;;1.15;1.05;;;;;;;10.29;68.06;99705.25;5029770;28;20042;-72
2023/12/31 05:25:31;;;;;;;3.38;1.30;;;;;;;10.28;67.94;99705.47;5024762;28;20050;-71
2023/12/31 05:27:58;;;;;;;1.48;1.38;;;;;;;10.28;68.03;99711.66;5006946;28;20107;-72
2023/12/31 05:30:26;;;;;;;2.17;1.35;;;;;;;10.28;68.09;99700.13;5023063;28;20049;-70
2023/12/31 05:32:54;;;;;;;3.42;1.55;;;;;;;10.28;68.09;99689.38;5025360;28;20046;-72
2023/12/31 05:35:22;;;;;;;1.25;1.15;;;;;;;10.27;68.13;99685.06;5022301;28;20042;-72
2023/12/31 05:37:51;;;;;;;4.50;1.50;;;;;;;10.27;67.87;99685.06;5029107;28;20050;-72
2023/12/31 05:40:19;;;;;;;1.85;1.20;;;;;;;10.27;68.19;99683.19;5024990;28;20068;-72
2023/12/31 05:42:47;;;;;;;2.00;1.20;;;;;;;10.27;68.15;99664.41;5039906;28;20050;-72
2023/12/31 05:45:16;;;;;;;1.88;1.33;;;;;;;10.27;68.03;99655.53;5025605;28;20053;-71
2023/12/31 05:47:44;;;;;;;2.35;1.42;;;;;;;10.26;68.07;99660.09;5024407;28;20049;-72
2023/12/31 05:50:14;;;;;;;3.00;1.45;;;;;;;10.27;68.11;99659.03;5023944;28;20053;-73
2023/12/31 05:52:42;;;;;;;1.58;1.35;;;;;;;10.27;67.99;99653.66;5019601;28;20092;-71
2023/12/31 05:55:11;;;;;;;2.58;1.55;;;;;;;10.21;68.04;99629.66;5008175;28;20042;-71
2023/12/31 05:57:40;;;;;;;3.78;1.33;;;;;;;10.27;68.12;99653.66;5020958;28;20077;-72
2023/12/31 06:00:09;;;;;;;2.42;1.35;;;;;;;10.28;68.08;99657.97;4675212;27;10000603;-71
2023/12/31 06:02:37;;;;;;;3.05;1.50;;;;;;;10.27;68.05;99650.97;5017141;28;20046;-72
2023/12/31 06:05:05;;;;;;;2.13;1.33;;;;;;;10.25;68.14;99636.16;5014100;28;20042;-69
2023/12/31 06:07:34;;;;;;;2.13;1.30;;;;;;;10.28;68.21;99632.97;5009578;28;20050;-71
2023/12/31 06:10:03;;;;;;;1.83;1.45;;;;;;;10.28;68.23;99619.56;5012039;28;20501;-71
2023/12/31 06:12:32;;;;;;;1.77;1.27;;;;;;;10.27;67.97;99629.50;5012439;28;20050;-72
2023/12/31 06:15:05;;;;;;;4.30;1.50;;;;;;;10.29;68.17;99631.91;5007269;28;20054;-72
2023/12/31 06:17:33;;;;;;;2.35;1.63;;;;;;;10.28;68.04;99619.56;4998084;28;20054;-71
2023/12/31 06:20:02;;;;;;;2.65;1.40;;;;;;;10.29;68.10;99618.50;5003913;28;20046;-70
2023/12/31 06:22:30;;;;;;;2.88;1.40;;;;;;;10.28;68.01;99617.69;5007880;28;20050;-71
2023/12/31 06:24:58;;;;;;;2.40;1.20;;;;;;;10.27;68.16;99613.38;5011875;28;20149;-73
2023/12/31 06:27:25;;;;;;;2.10;1.60;;;;;;;10.28;68.08;99609.63;5004666;28;20050;-71
2023/12/31 06:29:55;;;;;;;2.42;1.50;;;;;;;10.36;68.31;99598.44;5006529;28;20053;-72
2023/12/31 06:32:22;;;;;;;2.17;1.30;;;;;;;10.32;68.10;99601.88;5008133;28;20106;-73
2023/12/31 06:34:51;;;;;;;2.90;1.38;;;;;;;10.30;68.16;99596.75;5018972;28;20050;-72
2023/12/31 06:37:19;;;;;;;3.13;1.77;;;;;;;10.29;68.07;99597.81;5031297;28;20057;-73
2023/12/31 06:39:47;;;;;;;3.33;1.30;;;;;;;10.30;68.08;99580.66;5014375;28;20038;-72
2023/12/31 06:42:15;;;;;;;3.40;1.45;;;;;;;10.28;68.01;99572.03;5013121;28;20071;-72
2023/12/31 06:44:43;;;;;;;2.05;1.58;;;;;;;10.30;68.07;99574.47;5009856;28;20104;-74
2023/12/31 06:47:12;;;;;;;1.70;1.20;;;;;;;10.30;67.85;99567.22;5001489;28;20080;-73
2023/12/31 06:49:40;;;;;;;1.35;1.00;;;;;;;10.30;67.99;99556.47;5004796;28;20115;-72
2023/12/31 06:52:08;;;;;;;1.90;1.27;;;;;;;10.30;68.08;99551.13;5007298;28;20045;-72
2023/12/31 06:54:36;;;;;;;3.38;1.98;;;;;;;10.29;68.03;99560.22;5010463;28;20058;-70
2023/12/31 06:57:04;;;;;;;3.60;1.30;;;;;;;10.32;68.20;99548.19;5005766;28;20110;-71
2023/12/31 06:59:36;;;;;;;2.75;1.52;;;;;;;10.32;68.11;99543.63;5012072;28;20463;-70
2023/12/31 07:02:04;;;;;;;2.10;1.38;;;;;;;10.31;68.18;99539.31;5006753;28;20513;-68
2023/12/31 07:04:34;;;;;;;3.03;1.63;;;;;;;10.32;68.29;99537.44;5019615;28;20527;-74
2023/12/31 07:07:01;;;;;;;1.77;1.30;;;;;;;10.31;68.00;99538.50;5008285;28;20049;-70
2023/12/31 07:09:29;;;;;;;1.75;1.27;;;;;;;10.32;67.98;99526.69;5022022;28;20057;-72
2023/12/31 07:11:57;;;;;;;2.90;1.60;;;;;;;10.30;68.14;99518.06;5014842;28;20065;-72
2023/12/31 07:14:26;;;;;;;2.28;1.48;;;;;;;10.29;68.21;99521.81;5007671;28;20058;-72
2023/12/31 07:16:55;;;;;;;2.78;1.40;;;;;;;10.28;68.14;99510.28;5016104;28;20057;-72
2023/12/31 07:19:23;;;;;;;2.83;1.58;;;;;;;10.30;68.71;99505.47;5020109;28;20060;-71
2023/12/31 07:21:52;;;;;;;4.00;1.95;;;;;;;10.31;68.02;99509.78;5010289;28;20077;-72
2023/12/31 07:24:21;;;;;;;3.75;1.83;;;;;;;10.32;68.22;99489.09;5012653;28;20085;-71
2023/12/31 07:26:48;;;;;;;7.00;1.85;;;;;;;10.39;68.70;99498.56;5014461;28;20050;-73
2023/12/31 07:29:16;;;;;;;6.55;2.40;;;;;;;10.40;67.91;99496.69;5013237;28;20074;-69
2023/12/31 07:31:45;;;;;;;5.82;2.10;;;;;;;10.40;68.44;99494.00;5001427;28;20078;-69
2023/12/31 07:34:15;;;;;;;5.80;2.55;;;;;;;10.53;68.05;99482.00;5028207;28;20053;-69
2023/12/31 07:36:43;;;;;;;5.32;2.47;;;;;;;10.68;67.52;99474.09;5043113;28;20046;-71
2023/12/31 07:39:14;;;;;;;4.82;2.85;;;;;;;10.80;67.14;99479.28;5029543;28;20494;-69
2023/12/31 07:41:42;;;;;;;10.32;2.42;;;;;;;11.02;66.57;99480.81;5020879;28;20057;-69
2023/12/31 07:44:09;;;;;;;5.47;2.50;;;;;;;11.19;66.54;99466.41;5010102;28;20459;-69
2023/12/31 07:46:37;;;;;;;6.25;2.30;;;;;;;11.44;65.10;99479.19;5009752;28;20042;-70
2023/12/31 07:49:05;;;;;;;6.07;3.13;;;;;;;11.58;64.89;99470.38;5020896;28;20053;-70
2023/12/31 07:51:33;;;;;;;6.78;2.15;;;;;;;11.86;64.46;99476.47;5015965;28;20127;-71
2023/12/31 07:54:01;;;;;;;6.38;1.98;;;;;;;12.03;63.72;99468.97;5018388;28;20271;-70
2023/12/31 07:56:30;;;;;;;4.97;2.25;;;;;;;12.28;64.43;99455.53;5060344;28;20062;-69
2023/12/31 07:58:58;;;;;;;3.50;1.65;;;;;;;12.52;61.95;99455.84;5022852;28;20061;-69
2023/12/31 08:01:26;;;;;;;5.25;2.05;;;;;;;12.54;62.04;99471.75;5027427;28;20069;-70
2023/12/31 08:03:53;;;;;;;3.60;2.03;;;;;;;12.52;63.44;99463.91;5019457;28;20057;-69
2023/12/31 08:06:21;;;;;;;2.88;2.00;;;;;;;12.40;63.17;99463.38;5020044;28;20077;-69
2023/12/31 08:08:50;;;;;;;6.55;2.58;;;;;;;12.23;63.89;99454.72;5022863;28;20581;-70
2023/12/31 08:11:18;;;;;;;5.15;2.25;;;;;;;12.01;63.96;99460.34;5022333;28;20046;-70
2023/12/31 08:13:49;;;;;;;3.35;2.40;;;;;;;11.80;64.78;99462.16;5025859;28;20099;-68
2023/12/31 08:16:19;;;;;;;5.40;2.17;;;;;;;11.70;66.55;99460.22;5017377;28;20054;-69
2023/12/31 08:18:47;;;;;;;5.03;2.03;;;;;;;11.61;66.23;99461.78;5022011;28;20059;-70
2023/12/31 08:21:14;;;;;;;3.83;1.60;;;;;;;11.54;66.53;99463.91;5020838;28;20049;-70
2023/12/31 08:23:42;;;;;;;7.57;1.95;;;;;;;11.48;67.15;99462.25;5026787;28;20060;-69
2023/12/31 08:26:14;;;;;;;2.92;1.73;;;;;;;11.71;68.76;99458.34;5012419;28;20068;-68
2023/12/31 08:28:42;;;;;;;4.78;2.25;;;;;;;11.61;67.26;99459.09;5023123;28;20049;-68
2023/12/31 08:31:14;;;;;;;8.43;2.70;;;;;;;11.48;67.43;99461.47;5029857;28;20055;-67
2023/12/31 08:33:42;;;;;;;8.07;2.92;;;;;;;11.46;67.64;99469.78;5030264;28;20114;-69
2023/12/31 08:36:10;;;;;;;7.82;2.60;;;;;;;11.31;67.44;99462.44;5023634;28;20049;-68
2023/12/31 08:38:38;;;;;;;7.03;2.65;;;;;;;11.25;68.23;99465.38;5019766;28;20136;-69
2023/12/31 08:41:06;;;;;;;5.90;2.47;;;;;;;11.23;68.65;99459.44;5023631;28;20053;-68
2023/12/31 08:43:33;;;;;;;4.10;2.22;;;;;;;11.30;68.47;99462.72;5025069;28;20054;-69
2023/12/31 08:46:07;;;;;;;4.90;2.67;;;;;;;11.70;69.75;99465.59;5024940;28;20046;-66
2023/12/31 08:48:36;;;;;;;4.88;1.90;;;;;;;11.90;68.60;99466.78;5018897;28;20113;-67
2023/12/31 08:51:04;;;;;;;3.67;1.92;;;;;;;11.85;67.33;99464.06;5024721;28;20049;-68
2023/12/31 08:53:33;;;;;;;5.20;1.80;;;;;;;11.61;68.41;99461.78;5028577;28;20103;-67
2023/12/31 08:56:00;;;;;;;3.50;2.20;;;;;;;11.66;67.94;99461.00;5030982;28;20479;-67
2023/12/31 08:58:29;;;;;;;4.25;2.22;;;;;;;11.47;68.68;99457.16;5025089;28;20076;-65
2023/12/31 09:00:57;;;;;;;6.65;1.98;;;;;;;11.28;68.87;99475.59;5022867;28;20052;-66
2023/12/31 09:03:25;;;;;;;4.10;1.88;;;;;;;11.50;68.35;99472.75;5024272;28;20050;-67
2023/12/31 09:05:54;;;;;;;5.57;2.08;;;;;;;11.89;68.54;99475.94;5032460;28;20054;-65
2023/12/31 09:08:22;;;;;;;7.45;2.00;;;;;;;11.83;68.38;99479.69;5029744;28;20063;-66
2023/12/31 09:10:50;;;;;;;3.90;1.83;;;;;;;11.86;68.20;99481.84;5010697;28;20050;-66
2023/12/31 09:13:22;;;;;;;4.50;1.98;;;;;;;11.57;67.96;99484.91;5014829;28;20118;-66
2023/12/31 09:15:49;;;;;;;3.78;1.80;;;;;;;11.62;70.56;99486.81;5021178;28;20045;-66
2023/12/31 09:18:17;;;;;;;5.35;2.25;;;;;;;11.52;68.22;99489.47;5016247;28;20119;-68
2023/12/31 09:20:46;;;;;;;4.10;1.92;;;;;;;11.73;68.81;99488.50;5024763;28;20060;-65
2023/12/31 09:23:16;;;;;;;5.13;2.00;;;;;;;11.59;68.76;99493.53;5020515;28;20050;-67
2023/12/31 09:25:45;;;;;;;2.53;1.52;;;;;;;11.64;69.82;99492.75;5022424;28;20061;-67
2023/12/31 09:28:13;;;;;;;6.38;2.00;;;;;;;11.70;68.29;99491.69;5022631;28;20046;-66
2023/12/31 09:30:40;;;;;;;4.30;1.85;;;;;;;11.49;68.85;99495.34;5022347;28;20069;-66
2023/12/31 09:33:09;;;;;;;7.03;1.90;;;;;;;11.40;69.88;99505.81;5022071;28;20076;-66
2023/12/31 09:35:37;;;;;;;5.72;2.20;;;;;;;11.30;69.48;99503.84;5009455;28;20064;-66
2023/12/31 09:38:04;;;;;;;2.85;1.60;;;;;;;11.29;70.89;99509.50;5019325;28;20042;-66
2023/12/31 09:40:34;;;;;;;5.53;1.60;;;;;;;11.31;69.56;99510.84;5039445;28;20053;-66
2023/12/31 09:43:03;;;;;;;4.20;1.60;;;;;;;11.23;69.50;99511.34;5022330;28;20046;-62
2023/12/31 09:45:33;;;;;;;2.95;1.38;;;;;;;11.18;69.60;99515.88;5022977;28;20045;-66
2023/12/31 09:48:02;;;;;;;2.55;1.52;;;;;;;11.14;69.66;99518.28;5019400;28;20061;-66
2023/12/31 09:50:31;;;;;;;5.18;1.60;;;;;;;11.42;72.07;99514.41;5024043;28;20050;-66
2023/12/31 09:53:02;;;;;;;2.58;1.52;;;;;;;11.31;69.30;99527.00;5030409;28;20042;-64
2023/12/31 09:55:31;;;;;;;2.17;1.55;;;;;;;11.23;69.48;99535.53;5035125;28;20439;-65
2023/12/31 09:58:03;;;;;;;3.35;1.48;;;;;;;11.15;69.50;99535.22;5027384;28;20059;-63
2023/12/31 10:00:31;;;;;;;6.63;1.55;;;;;;;11.13;70.17;99540.84;5021739;28;20062;-63
2023/12/31 10:02:59;;;;;;;2.72;1.63;;;;;;;11.08;69.61;99533.56;5010436;28;20076;-64
2023/12/31 10:05:30;;;;;;;4.25;1.55;;;;;;;11.17;70.08;99523.13;5002593;28;20066;-64
2023/12/31 10:07:58;;;;;;;2.55;1.10;;;;;;;11.14;69.76;99517.47;5008041;28;20053;-64
2023/12/31 10:10:28;;;;;;;2.10;1.30;;;;;;;11.19;69.99;99520.19;5017246;28;20046;-64
2023/12/31 10:12:56;;;;;;;4.47;1.80;;;;;;;11.17;69.35;99523.13;5002120;28;20104;-64
2023/12/31 10:15:25;;;;;;;3.42;1.15;;;;;;;11.21;70.03;99524.22;5034554;28;20527;-64
2023/12/31 10:17:55;;;;;;;4.78;1.73;;;;;;;11.19;70.03;99517.50;5019732;28;20053;-64
2023/12/31 10:20:23;;;;;;;3.45;1.40;;;;;;;11.15;69.90;99522.56;5017174;28;20130;-64
2023/12/31 10:22:51;;;;;;;2.67;1.20;;;;;;;11.17;69.76;99530.38;5001758;28;20055;-64
2023/12/31 10:25:21;;;;;;;3.88;1.60;;;;;;;11.22;70.07;99522.34;5021913;28;20118;-64
2023/12/31 10:27:49;;;;;;;2.85;1.50;;;;;;;11.15;69.98;99509.13;5032589;28;20079;-65
2023/12/31 10:30:18;;;;;;;3.80;1.48;;;;;;;11.15;69.99;99519.06;5001641;28;20530;-64
2023/12/31 10:32:48;;;;;;;6.57;1.83;;;;;;;11.09;69.76;99516.34;5003953;28;20058;-64
2023/12/31 10:35:20;;;;;;;3.88;1.30;;;;;;;11.11;69.81;99513.41;5036234;28;20108;-65
2023/12/31 10:37:48;;;;;;;4.55;1.92;;;;;;;11.49;70.83;99515.00;5019836;28;20050;-64
2023/12/31 10:40:20;;;;;;;2.17;1.17;;;;;;;11.69;70.29;99520.50;5015440;28;20542;-64
2023/12/31 10:42:50;;;;;;;3.25;1.10;;;;;;;11.47;68.54;99527.09;5001613;28;20054;-65
2023/12/31 10:45:20;;;;;;;3.13;1.25;;;;;;;11.28;69.45;99527.50;5014886;28;20398;-64
2023/12/31 10:47:53;;;;;;;5.55;1.48;;;;;;;11.17;69.40;99517.75;5020005;28;20079;-64
2023/12/31 10:50:23;;;;;;;8.90;1.33;;;;;;;11.16;70.02;99531.47;5017302;28;20056;-64
2023/12/31 10:52:55;;;;;;;5.13;1.45;;;;;;;11.11;70.00;99534.09;5024853;28;20050;-64
2023/12/31 10:55:24;;;;;;;2.17;1.20;;;;;;;11.05;69.66;99530.56;5014448;28;20053;-64
2023/12/31 10:57:52;;;;;;;9.95;1.40;;;;;;;11.03;70.07;99520.06;5025367;28;20053;-64
2023/12/31 11:00:20;;;;;;;3.45;0.95;;;;;;;11.08;69.87;99524.69;5024399;28;20117;-64
2023/12/31 11:02:53;;;;;;;2.72;1.20;;;;;;;11.06;69.72;99532.19;5014685;28;20054;-64
2023/12/31 11:05:24;;;;;;;3.38;1.20;;;;;;;11.49;68.62;99528.47;5034085;28;20060;-64
2023/12/31 11:07:53;;;;;;;1.52;0.82;;;;;;;11.22;69.69;99531.22;5019412;28;20050;-64
2023/12/31 11:10:21;;;;;;;2.20;1.55;;;;;;;11.15;69.75;99533.34;5005110;28;20050;-64
2023/12/31 11:12:51;;;;;;;4.55;1.10;;;;;;;11.10;69.58;99535.97;5005096;28;20084;-64
2023/12/31 11:15:22;;;;;;;3.58;1.15;;;;;;;11.04;69.52;99529.75;5011475;28;20530;-64
2023/12/31 11:18:05;;;;;;;1.90;0.90;;;;;;;11.06;69.85;99524.94;5023089;28;20054;-64
2023/12/31 11:20:52;;;;;;;5.13;1.25;;;;;;;11.03;69.73;99525.44;5065273;28;20081;-64
2023/12/31 11:23:29;;;;;;;4.15;1.25;;;;;;;11.03;69.92;99528.13;5008098;28;20050;-64
2023/12/31 11:25:57;;;;;;;2.10;1.02;;;;;;;11.04;69.85;99537.81;5023899;28;20046;-64
2023/12/31 11:28:27;;;;;;;3.38;1.30;;;;;;;11.01;69.75;99527.59;5017738;28;20050;-64
2023/12/31 11:30:58;;;;;;;3.28;0.82;;;;;;;11.02;69.24;99534.56;5023709;28;20095;-64
2023/12/31 11:33:28;;;;;;;6.10;1.80;;;;;;;11.08;69.07;99532.75;5021647;28;20046;-65
2023/12/31 11:36:03;;;;;;;2.00;1.40;;;;;;;11.13;68.91;99545.41;5021033;28;20074;-62
2023/12/31 11:38:52;;;;;;;4.00;1.20;;;;;;;11.06;68.63;99524.13;5030134;28;20347;-63